createdAt,value
2023-01-05T00:01:27.406Z,1.13
2023-01-05T00:06:18.035Z,1.37
2023-01-05T00:11:23.768Z,0.40
2023-01-05T00:16:29.425Z,1.43
2023-01-05T00:21:56.610Z,2.73
2023-01-05T00:26:47.201Z,2.70
2023-01-05T00:31:40.144Z,1.67
2023-01-05T00:36:24.615Z,2.90
2023-01-05T00:41:13.355Z,4.90
2023-01-05T00:46:11.558Z,2.10
2023-01-05T00:51:02.816Z,2.03
2023-01-05T00:56:07.038Z,1.63
2023-01-05T01:01:27.964Z,1.43
2023-01-05T01:06:15.898Z,2.63
2023-01-05T01:11:19.168Z,1.33
2023-01-05T01:16:24.530Z,2.50
2023-01-05T01:21:13.016Z,2.43
2023-01-05T01:25:58.830Z,2.70
2023-01-05T01:30:42.326Z,1.67
2023-01-05T01:35:25.758Z,4.13
2023-01-05T01:40:14.257Z,2.03
2023-01-05T01:45:02.235Z,3.33
2023-01-05T01:50:07.902Z,2.97
2023-01-05T01:54:53.334Z,4.00
2023-01-05T01:59:43.270Z,4.80
2023-01-05T02:04:31.135Z,6.37
2023-01-05T02:09:15.035Z,3.07
2023-01-05T02:14:32.618Z,5.30
2023-01-05T02:19:55.059Z,3.97
2023-01-05T02:25:13.602Z,6.23
2023-01-05T02:30:35.024Z,3.27
2023-01-05T02:35:38.956Z,3.70
2023-01-05T02:40:42.575Z,3.67
2023-01-05T02:45:32.586Z,3.30
2023-01-05T02:50:33.293Z,5.00
2023-01-05T02:55:29.407Z,3.20
2023-01-05T03:00:47.586Z,6.50
2023-01-05T03:05:37.113Z,6.93
2023-01-05T03:10:57.979Z,5.70
2023-01-05T03:16:02.597Z,4.30
2023-01-05T03:21:01.015Z,5.57
2023-01-05T03:26:20.160Z,5.83
2023-01-05T03:31:38.173Z,5.87
2023-01-05T03:36:34.414Z,5.57
2023-01-05T03:41:34.911Z,4.27
2023-01-05T03:46:24.487Z,6.73
2023-01-05T03:51:09.570Z,6.40
2023-01-05T03:55:56.864Z,5.33
2023-01-05T04:00:43.769Z,7.17
2023-01-05T04:05:33.929Z,4.37
2023-01-05T04:10:19.530Z,6.43
2023-01-05T04:15:09.079Z,5.33
2023-01-05T04:19:58.740Z,3.83
2023-01-05T04:24:42.921Z,3.27
2023-01-05T04:29:30.224Z,4.07
2023-01-05T04:34:24.670Z,4.73
2023-01-05T04:39:28.695Z,6.03
2023-01-05T04:44:13.185Z,4.67
2023-01-05T04:48:59.580Z,6.10
2023-01-05T04:53:47.167Z,7.30
2023-01-05T04:58:36.976Z,9.13
2023-01-05T05:03:24.722Z,5.93
2023-01-05T05:08:11.494Z,7.47
2023-01-05T05:13:00.013Z,5.40
2023-01-05T05:17:48.608Z,6.10
2023-01-05T05:22:36.412Z,4.73
2023-01-05T05:27:23.467Z,9.27
2023-01-05T05:32:11.463Z,6.13
2023-01-05T05:37:03.951Z,6.33
2023-01-05T05:41:47.585Z,5.43
2023-01-05T05:46:37.327Z,5.73
2023-01-05T05:51:23.427Z,6.80
2023-01-05T05:56:15.165Z,4.23
2023-01-05T06:01:01.750Z,5.70
2023-01-05T06:05:47.980Z,6.07
2023-01-05T06:10:36.394Z,7.30
2023-01-05T06:15:23.534Z,7.63
2023-01-05T06:20:10.955Z,5.00
2023-01-05T06:24:59.415Z,3.27
2023-01-05T06:29:53.433Z,7.17
2023-01-05T06:34:37.151Z,5.43
2023-01-05T06:39:24.054Z,8.93
2023-01-05T06:44:13.660Z,3.83
2023-01-05T06:49:00.820Z,8.13
2023-01-05T06:53:50.323Z,6.20
2023-01-05T06:58:36.790Z,7.53
2023-01-05T07:03:24.769Z,5.13
2023-01-05T07:08:12.228Z,4.67
2023-01-05T07:13:01.553Z,6.70
2023-01-05T07:17:48.196Z,5.00
2023-01-05T07:22:40.633Z,8.20
2023-01-05T07:27:25.669Z,7.00
2023-01-05T07:32:12.219Z,4.23
2023-01-05T07:37:02.091Z,7.20
2023-01-05T07:41:48.333Z,5.03
2023-01-05T07:46:35.788Z,7.67
2023-01-05T07:51:25.575Z,7.30
2023-01-05T07:56:11.876Z,6.50
2023-01-05T08:01:06.007Z,4.93
2023-01-05T08:05:51.445Z,8.87
2023-01-05T08:10:35.522Z,7.43
2023-01-05T08:15:24.079Z,4.97
2023-01-05T08:20:12.721Z,5.17
2023-01-05T08:25:00.976Z,4.93
2023-01-05T08:29:47.816Z,6.33
2023-01-05T08:34:35.710Z,5.47
2023-01-05T08:39:21.360Z,6.83
2023-01-05T08:44:15.716Z,4.20
2023-01-05T08:49:01.707Z,6.93
2023-01-05T08:53:47.848Z,7.33
2023-01-05T08:58:57.736Z,9.53
2023-01-05T09:03:44.074Z,4.73
2023-01-05T09:08:28.089Z,6.27
2023-01-05T09:13:21.329Z,8.90
2023-01-05T09:18:05.106Z,9.50
2023-01-05T09:22:52.986Z,10.03
2023-01-05T09:27:41.059Z,9.67
2023-01-05T09:32:27.969Z,7.43
2023-01-05T09:37:30.112Z,4.43
2023-01-05T09:42:38.285Z,5.43
2023-01-05T09:47:39.022Z,6.40
2023-01-05T09:52:36.019Z,7.43
2023-01-05T09:57:45.637Z,7.07
2023-01-05T10:02:49.871Z,5.20
2023-01-05T10:07:44.410Z,4.07
2023-01-05T10:12:58.372Z,2.17
2023-01-05T10:17:47.607Z,3.33
2023-01-05T10:22:50.627Z,5.17
2023-01-05T10:27:56.867Z,4.27
2023-01-05T10:38:19.578Z,4.13
2023-01-05T10:43:21.525Z,5.47
2023-01-05T10:48:45.235Z,3.57
2023-01-05T10:53:52.317Z,4.73
2023-01-05T10:58:39.050Z,6.23
2023-01-05T11:04:26.979Z,4.70
2023-01-05T11:09:37.036Z,5.43
2023-01-05T11:14:23.196Z,3.70
2023-01-05T11:19:13.410Z,6.10
2023-01-05T11:23:59.049Z,5.10
2023-01-05T11:29:01.583Z,4.13
2023-01-05T11:34:06.768Z,3.60
2023-01-05T11:38:55.120Z,3.23
2023-01-05T11:43:41.926Z,3.13
2023-01-05T11:48:32.226Z,3.43
2023-01-05T11:53:38.566Z,4.67
2023-01-05T11:58:33.503Z,4.53
2023-01-05T12:03:40.475Z,3.13
2023-01-05T12:08:45.447Z,3.87
2023-01-05T12:13:51.191Z,4.20
2023-01-05T12:19:08.147Z,3.13
2023-01-05T12:24:26.784Z,3.37
2023-01-05T12:35:56.373Z,2.97
2023-01-05T12:40:57.595Z,1.73
2023-01-05T12:46:07.785Z,1.93
2023-01-05T12:51:00.752Z,3.73
2023-01-05T12:55:54.548Z,4.40
2023-01-05T13:00:49.494Z,4.40
2023-01-05T13:05:48.214Z,4.00
2023-01-05T13:10:52.092Z,9.13
2023-01-05T13:15:58.407Z,3.63
2023-01-05T13:20:48.245Z,5.87
2023-01-05T13:25:49.821Z,4.00
2023-01-05T13:30:51.573Z,4.97
2023-01-05T13:36:00.256Z,4.13
2023-01-05T13:41:16.015Z,3.30
2023-01-05T13:46:37.049Z,5.43
2023-01-05T13:51:44.045Z,4.77
2023-01-05T13:56:29.261Z,5.90
2023-01-05T14:01:18.368Z,4.80
2023-01-05T14:06:10.098Z,4.00
2023-01-05T14:11:14.581Z,8.00
2023-01-05T14:16:44.056Z,7.57
2023-01-05T14:22:04.088Z,3.53
2023-01-05T14:27:11.971Z,9.17
2023-01-05T14:31:55.866Z,6.90
2023-01-05T14:36:51.707Z,4.93
2023-01-05T14:42:00.887Z,4.13
2023-01-05T14:46:54.856Z,2.23
2023-01-05T14:51:54.561Z,2.83
2023-01-05T14:57:16.968Z,3.90
2023-01-05T15:02:18.132Z,4.00
2023-01-05T15:07:21.817Z,3.30
2023-01-05T15:13:04.147Z,2.13
2023-01-05T15:18:23.581Z,3.20
2023-01-05T15:23:22.517Z,0.90
2023-01-05T15:28:50.825Z,0.90
2023-01-05T15:34:04.857Z,2.17
2023-01-05T15:38:55.543Z,1.27
2023-01-05T15:43:40.741Z,2.47
2023-01-05T15:48:32.828Z,1.23
2023-01-05T15:53:38.361Z,1.87
2023-01-05T15:58:23.597Z,1.80
2023-01-05T16:03:21.854Z,1.43
2023-01-05T16:08:14.528Z,1.30
2023-01-05T16:13:04.211Z,1.23
2023-01-05T16:17:48.194Z,2.30
2023-01-05T16:22:58.004Z,3.53
2023-01-05T16:27:56.266Z,2.53
2023-01-05T16:32:43.989Z,2.23
2023-01-05T16:37:33.976Z,2.03
2023-01-05T16:42:39.972Z,1.50
2023-01-05T16:47:37.893Z,1.37
2023-01-05T16:52:38.986Z,1.97
2023-01-05T16:57:47.865Z,1.53
2023-01-05T17:02:52.836Z,1.53
2023-01-05T17:07:44.585Z,2.17
2023-01-05T17:12:28.079Z,1.27
2023-01-05T17:17:13.561Z,1.97
2023-01-05T17:22:11.555Z,1.97
2023-01-05T17:27:13.999Z,2.73
2023-01-05T17:32:00.731Z,2.03
2023-01-05T17:36:49.189Z,2.40
2023-01-05T17:46:40.463Z,3.13
2023-01-05T17:51:29.463Z,1.93
2023-01-05T17:56:13.181Z,4.63
2023-01-05T18:01:06.753Z,1.73
2023-01-05T18:06:06.828Z,3.10
2023-01-05T18:10:54.990Z,2.63
2023-01-05T18:15:44.239Z,2.10
2023-01-05T18:20:29.758Z,3.07
2023-01-05T18:38:06.032Z,1.93
2023-01-05T18:43:06.322Z,1.53
2023-01-05T18:48:10.605Z,3.10
2023-01-05T18:53:17.708Z,2.27
2023-01-05T18:58:39.035Z,2.00
2023-01-05T19:03:43.491Z,1.93
2023-01-05T19:13:50.332Z,0.97
2023-01-05T19:18:39.128Z,0.80
2023-01-05T19:23:40.665Z,3.23
2023-01-05T19:28:29.180Z,1.03
2023-01-05T19:33:19.928Z,4.70
2023-01-05T19:38:40.366Z,1.10
2023-01-05T19:43:27.312Z,2.27
2023-01-05T19:48:18.414Z,1.67
2023-01-05T19:53:13.093Z,1.57
2023-01-05T19:58:10.318Z,2.03
2023-01-05T20:02:54.212Z,3.70
2023-01-05T20:07:41.788Z,1.60
2023-01-05T20:12:29.222Z,1.63
2023-01-05T20:17:18.866Z,3.60
2023-01-05T20:22:08.030Z,2.47
2023-01-05T20:27:27.784Z,2.67
2023-01-05T20:37:50.760Z,2.97
2023-01-05T20:42:37.865Z,3.47
2023-01-05T20:47:25.482Z,3.03
2023-01-05T20:52:26.843Z,2.20
2023-01-05T21:03:08.117Z,2.00
2023-01-05T21:07:55.841Z,3.77
2023-01-05T21:12:46.906Z,2.20
2023-01-05T21:17:33.889Z,1.43
2023-01-05T21:22:22.509Z,1.93
2023-01-05T21:27:28.832Z,1.57
2023-01-05T21:32:15.747Z,2.07
2023-01-05T21:36:59.835Z,2.87
2023-01-05T21:42:07.063Z,1.70
2023-01-05T21:46:52.918Z,3.30
2023-01-05T21:51:57.399Z,3.33
2023-01-05T21:56:45.762Z,4.53
2023-01-05T22:01:32.608Z,3.00
2023-01-05T22:06:21.476Z,2.50
2023-01-05T22:11:07.364Z,4.23
2023-01-05T22:15:59.193Z,3.20
2023-01-05T22:20:44.799Z,4.43
2023-01-05T22:25:32.090Z,3.87
2023-01-05T22:30:21.450Z,4.33
2023-01-05T22:35:09.759Z,1.30
2023-01-05T22:39:55.202Z,2.73
2023-01-05T22:44:48.070Z,2.03
2023-01-05T22:49:31.774Z,3.37
2023-01-05T22:54:24.243Z,1.80
2023-01-05T22:59:08.325Z,3.93
2023-01-05T23:03:55.616Z,3.33
2023-01-05T23:08:46.013Z,3.10
2023-01-05T23:13:32.138Z,4.90
2023-01-05T23:18:23.234Z,5.80
2023-01-05T23:23:11.568Z,4.43
2023-01-05T23:27:58.608Z,3.80
2023-01-05T23:32:43.845Z,4.73
2023-01-05T23:37:34.717Z,4.03
2023-01-05T23:42:39.562Z,3.63
2023-01-05T23:47:23.354Z,4.73
2023-01-05T23:52:13.043Z,4.63
2023-01-05T23:57:02.395Z,3.73
